createdAt,value
2022-12-20T00:07:17.414Z,100749.00
2022-12-20T00:17:17.463Z,100733.00
2022-12-20T00:27:17.373Z,100720.00
2022-12-20T00:37:17.391Z,100706.00
2022-12-20T00:47:18.074Z,100694.00
2022-12-20T00:57:18.549Z,100704.00
2022-12-20T01:07:19.067Z,100720.00
2022-12-20T01:17:19.658Z,100720.00
2022-12-20T01:27:19.469Z,100718.00
2022-12-20T01:37:19.483Z,100706.00
2022-12-20T01:47:19.489Z,100692.00
2022-12-20T01:57:19.548Z,100690.00
2022-12-20T02:07:19.534Z,100684.00
2022-12-20T02:17:19.543Z,100679.00
2022-12-20T02:27:19.577Z,100665.00
2022-12-20T02:37:19.749Z,100659.00
2022-12-20T02:47:19.691Z,100649.00
2022-12-20T02:57:19.613Z,100647.00
2022-12-20T03:07:19.596Z,100655.00
2022-12-20T03:17:19.797Z,100657.00
2022-12-20T03:27:21.562Z,100659.00
2022-12-20T03:37:22.141Z,100663.00
2022-12-20T03:47:22.934Z,100659.00
2022-12-20T03:57:24.230Z,100663.00
2022-12-20T04:07:24.790Z,100661.00
2022-12-20T04:17:25.464Z,100669.00
2022-12-20T04:27:27.252Z,100665.00
2022-12-20T04:37:28.621Z,100655.00
2022-12-20T04:47:29.176Z,100651.00
2022-12-20T04:57:29.987Z,100637.00
2022-12-20T05:07:30.332Z,100628.00
2022-12-20T05:17:32.153Z,100618.00
2022-12-20T05:27:33.009Z,100604.00
2022-12-20T05:37:34.667Z,100594.00
2022-12-20T05:47:36.690Z,100583.00
2022-12-20T05:57:37.060Z,100581.00
2022-12-20T06:07:37.029Z,100571.00
2022-12-20T06:17:37.285Z,100567.00
2022-12-20T06:27:42.704Z,100571.00
2022-12-20T06:37:43.280Z,100569.00
2022-12-20T06:47:44.364Z,100559.00
2022-12-20T06:57:46.018Z,100549.00
2022-12-20T07:07:45.904Z,100535.00
2022-12-20T07:17:46.021Z,100527.00
2022-12-20T07:27:45.967Z,100527.00
2022-12-20T07:37:45.922Z,100519.00
2022-12-20T07:47:46.968Z,100511.00
2022-12-20T07:57:47.007Z,100515.00
2022-12-20T08:07:47.033Z,100529.00
2022-12-20T08:17:46.970Z,100513.00
2022-12-20T08:27:47.034Z,100515.00
2022-12-20T08:37:47.001Z,100507.00
2022-12-20T08:47:47.587Z,100502.00
2022-12-20T08:57:49.496Z,100502.00
2022-12-20T09:07:50.046Z,100502.00
2022-12-20T09:17:50.046Z,100496.00
2022-12-20T09:27:50.122Z,100498.00
2022-12-20T09:37:50.136Z,100502.00
2022-12-20T09:47:51.920Z,100500.00
2022-12-20T09:57:52.124Z,100490.00
2022-12-20T10:07:52.155Z,100490.00
2022-12-20T10:17:52.170Z,100476.00
2022-12-20T10:27:52.212Z,100470.00
2022-12-20T10:38:06.546Z,100453.00
2022-12-20T10:47:54.285Z,100441.00
2022-12-20T10:57:54.261Z,100425.00
2022-12-20T11:17:56.215Z,100396.00
2022-12-20T11:27:56.264Z,100384.00
2022-12-20T11:37:56.302Z,100380.00
2022-12-20T11:47:56.245Z,100366.00
2022-12-20T11:58:20.910Z,100357.00
2022-12-20T12:07:58.260Z,100349.00
2022-12-20T12:17:58.271Z,100349.00
2022-12-20T12:27:58.355Z,100351.00
2022-12-20T12:38:01.531Z,100351.00
2022-12-20T12:48:01.349Z,100349.00
2022-12-20T12:58:01.411Z,100351.00
2022-12-20T13:08:01.609Z,100343.00
2022-12-20T13:18:01.464Z,100335.00
2022-12-20T13:28:04.338Z,100317.00
2022-12-20T13:38:05.360Z,100309.00
2022-12-20T13:48:11.435Z,100308.00
2022-12-20T13:58:07.451Z,100313.00
2022-12-20T14:08:07.560Z,100311.00
2022-12-20T14:18:07.460Z,100313.00
2022-12-20T14:28:07.527Z,100315.00
2022-12-20T14:38:07.506Z,100313.00
2022-12-20T14:48:08.205Z,100300.00
2022-12-20T14:58:08.554Z,100296.00
2022-12-20T15:08:08.522Z,100292.00
2022-12-20T15:18:08.706Z,100278.00
2022-12-20T15:28:08.602Z,100274.00
2022-12-20T15:38:08.533Z,100274.00
2022-12-20T15:48:08.558Z,100274.00
2022-12-20T15:58:11.664Z,100272.00
2022-12-20T16:08:11.569Z,100260.00
2022-12-20T16:18:11.858Z,100252.00
2022-12-20T16:28:11.754Z,100248.00
2022-12-20T16:38:11.769Z,100252.00
2022-12-20T16:48:11.982Z,100248.00
2022-12-20T16:58:12.169Z,100242.00
2022-12-20T17:18:31.828Z,100238.00
2022-12-20T17:28:31.774Z,100238.00
2022-12-20T17:38:31.636Z,100232.00
2022-12-20T17:48:34.004Z,100227.00
2022-12-20T17:58:33.981Z,100215.00
2022-12-20T18:08:33.770Z,100213.00
2022-12-20T18:18:37.003Z,100217.00
2022-12-20T18:28:35.897Z,100213.00
2022-12-20T18:38:35.765Z,100213.00
2022-12-20T18:48:36.268Z,100209.00
2022-12-20T18:58:36.946Z,100211.00
2022-12-20T19:08:36.829Z,100211.00
2022-12-20T19:18:39.834Z,100207.00
2022-12-20T19:28:39.877Z,100205.00
2022-12-20T19:38:39.856Z,100213.00
2022-12-20T19:48:39.995Z,100213.00
2022-12-20T19:58:40.437Z,100213.00
2022-12-20T20:08:40.928Z,100213.00
2022-12-20T20:18:41.230Z,100215.00
2022-12-20T20:28:45.039Z,100213.00
2022-12-20T20:38:42.974Z,100213.00
2022-12-20T20:48:43.251Z,100207.00
2022-12-20T20:58:43.037Z,100205.00
2022-12-20T21:08:42.943Z,100199.00
2022-12-20T21:18:42.984Z,100199.00
2022-12-20T21:28:43.604Z,100191.00
2022-12-20T21:38:43.954Z,100189.00
2022-12-20T21:48:44.033Z,100187.00
2022-12-20T21:58:44.124Z,100184.00
2022-12-20T22:08:45.085Z,100185.00
2022-12-20T22:18:45.071Z,100185.00
2022-12-20T22:28:45.671Z,100182.00
2022-12-20T22:38:46.408Z,100191.00
2022-12-20T22:48:46.120Z,100189.00
2022-12-20T22:58:46.166Z,100189.00
2022-12-20T23:08:46.136Z,100193.00
2022-12-20T23:18:46.183Z,100195.00
2022-12-20T23:28:46.299Z,100199.00
2022-12-20T23:38:46.160Z,100195.00
2022-12-20T23:48:46.248Z,100205.00
2022-12-20T23:58:46.263Z,100207.00
